2VA5 weather

Rosegill Farm Airstrip
Urbanna, Virginia, United States

Public forecast

Using degrees Fahrenheit for public forecast. Weather courtesy of forecast.io.

Closest aviation weather report (METAR) to Rosegill Farm Airstrip

Closest report is Middle Peninsula Regional Airport, 11.6 nm (21.4 km) SW. Retrieved 2019/11/22 16:35 UTC (16 minutes ago):

KFYJ 221635Z AUTO 24007KT 10SM SCT022 SCT038 OVC100 13/09 A2992 RMK AO1 T01250092

Closest aviation forecast (TAF) to Rosegill Farm Airstrip

Closest forecast is Felker Army Air Field, 30.0 nm (55.5 km) S. Retrieved 2019/11/22 11:18 UTC (6 hours ago):

TAF TAF KFAF 221113Z 2211/2317 24012KT 9999 BKN070 QNH3046INS TEMPO 2214/2217 24012G20KT BECMG 2218/2219 27009KT 9999 BKN020 QNH3046INS BECMG 2300/2301 02006KT 9999 BKN015 QNH3002INS BECMG 2303/2304 02006KT 9999 FEW025 QNH3006INS TX17/2218Z TN06/2311Z